Time;durP1;ratioP1;P1;durP2;ratioP2;P2;SDS_P1;SDS_P2;PMS_P1;PMS_P2;Temp;Humidity;BMP_temperature;BMP_pressure;BME280_temperature;BME280_humidity;BME280_pressure;Samples;Min_cycle;Max_cycle;Signal;HPM_P1;HPM_P2
2022/01/23 00:00:05;;;;;;;35.22;21.02;;;;;;;5.36;78.93;101286.22;343077;28;1888;-65
2022/01/23 00:00:19;;;;;;;33.50;19.92;;;;;;;5.32;79.03;101283.56;342869;28;1798;-65
2022/01/23 00:00:33;;;;;;;32.58;19.80;;;;;;;5.34;79.12;101294.78;343474;28;1060;-65
2022/01/23 00:00:46;;;;;;;33.67;20.13;;;;;;;5.40;78.95;101281.97;341873;28;1391;-65
2022/01/23 00:01:08;;;;;;;35.08;20.75;;;;;;;5.44;78.66;101281.19;341797;28;2185;-65
2022/01/23 00:01:20;;;;;;;33.53;20.15;;;;;;;5.46;78.77;101287.22;342037;28;1122;-65
2022/01/23 00:01:40;;;;;;;34.92;20.17;;;;;;;5.43;78.28;101283.72;342149;28;1286;-65
2022/01/23 00:02:06;;;;;;;35.05;20.35;;;;;;;5.46;78.67;101279.47;342089;28;1593;-65
2022/01/23 00:02:27;;;;;;;34.70;21.58;;;;;;;5.57;78.40;101285.69;342480;28;1839;-65
2022/01/23 00:02:39;;;;;;;36.28;21.38;;;;;;;5.58;78.23;101284.81;343535;28;1109;-65
2022/01/23 00:02:51;;;;;;;35.63;20.90;;;;;;;5.61;77.68;101283.97;343475;28;1105;-65
2022/01/23 00:03:09;;;;;;;34.35;20.55;;;;;;;5.64;77.78;101288.34;342351;28;2030;-65
2022/01/23 00:03:21;;;;;;;35.03;21.50;;;;;;;5.68;77.78;101279.78;342878;28;1299;-65
2022/01/23 00:03:34;;;;;;;34.20;21.35;;;;;;;5.68;77.51;101290.13;343334;28;1318;-65
2022/01/23 00:03:47;;;;;;;33.58;20.58;;;;;;;5.69;77.97;101287.53;343429;28;932;-65
2022/01/23 00:03:59;;;;;;;36.13;21.08;;;;;;;5.72;78.20;101286.72;342552;28;2006;-65
2022/01/23 00:04:11;;;;;;;36.95;21.52;;;;;;;5.67;77.94;101283.19;342131;28;1303;-65
2022/01/23 00:04:24;;;;;;;36.75;21.88;;;;;;;5.66;77.68;101281.50;342223;28;1087;-65
2022/01/23 00:04:37;;;;;;;34.60;21.13;;;;;;;5.67;78.04;101278.91;341553;28;2005;-65
2022/01/23 00:04:49;;;;;;;34.28;20.40;;;;;;;5.66;78.26;101287.50;342228;28;1304;-65
2022/01/23 00:05:08;;;;;;;34.15;20.27;;;;;;;5.62;77.69;101288.31;342066;28;1854;-65
2022/01/23 00:05:21;;;;;;;34.50;21.20;;;;;;;5.57;77.97;101285.69;343558;28;1096;-65
2022/01/23 00:05:36;;;;;;;33.75;20.90;;;;;;;5.53;78.14;101286.47;342046;28;1044;-65
2022/01/23 00:05:50;;;;;;;32.28;20.30;;;;;;;5.49;78.19;101284.66;340789;29;1179;-65
2022/01/23 00:06:02;;;;;;;31.73;20.08;;;;;;;5.45;78.53;101282.91;341303;28;1724;-65
2022/01/23 00:06:14;;;;;;;31.88;19.92;;;;;;;5.49;77.89;101283.81;340978;28;2521;-65
2022/01/23 00:06:29;;;;;;;33.05;20.25;;;;;;;5.49;77.99;101288.97;342121;28;1066;-65
2022/01/23 00:06:41;;;;;;;34.06;20.48;;;;;;;5.52;77.74;101289.03;342057;28;1100;-65
2022/01/23 00:06:53;;;;;;;33.38;20.42;;;;;;;5.55;78.52;101284.78;341763;28;1161;-65
2022/01/23 00:07:08;;;;;;;32.63;19.95;;;;;;;5.58;77.64;101289.13;341328;28;1117;-65
2022/01/23 00:07:26;;;;;;;31.50;19.10;;;;;;;5.46;78.14;101284.66;341747;28;1273;-65
2022/01/23 00:07:43;;;;;;;32.78;19.33;;;;;;;5.46;78.33;101284.66;342255;28;1932;-65
2022/01/23 00:07:55;;;;;;;35.38;20.83;;;;;;;5.48;78.20;101292.41;342213;28;1220;-65
2022/01/23 00:08:09;;;;;;;35.20;21.23;;;;;;;5.44;78.10;101286.34;342170;28;1055;-65
2022/01/23 00:08:23;;;;;;;34.78;21.17;;;;;;;5.44;78.37;101280.31;342270;28;1207;-65
2022/01/23 00:08:35;;;;;;;33.75;21.25;;;;;;;5.49;77.85;101284.66;343536;28;1921;-65
2022/01/23 00:08:48;;;;;;;34.63;21.05;;;;;;;5.54;77.95;101282.19;342856;28;1079;-65
2022/01/23 00:09:00;;;;;;;34.13;20.20;;;;;;;5.55;78.44;101279.63;343464;28;1297;-65
2022/01/23 00:09:15;;;;;;;33.55;20.52;;;;;;;5.51;78.29;101288.13;342968;28;2144;-65
2022/01/23 00:09:27;;;;;;;34.78;21.42;;;;;;;5.48;78.62;101285.53;343325;28;1094;-65
2022/01/23 00:09:40;;;;;;;35.85;21.38;;;;;;;5.51;78.30;101280.41;343675;28;1023;-65
2022/01/23 00:09:52;;;;;;;35.38;20.85;;;;;;;5.51;77.78;101282.13;343439;28;1108;-65
2022/01/23 00:10:05;;;;;;;34.60;20.02;;;;;;;5.54;78.21;101283.03;343364;28;1750;-65
2022/01/23 00:10:19;;;;;;;33.53;19.23;;;;;;;5.51;77.93;101276.97;343666;28;1043;-65
2022/01/23 00:10:32;;;;;;;33.42;19.85;;;;;;;5.57;78.33;101282.19;342855;28;2320;-65
2022/01/23 00:10:44;;;;;;;33.50;20.20;;;;;;;5.56;77.92;101281.34;343275;28;1047;-65
2022/01/23 00:10:56;;;;;;;34.40;19.65;;;;;;;5.55;78.16;101283.91;343480;28;1533;-65
2022/01/23 00:11:08;;;;;;;34.47;19.40;;;;;;;5.54;78.07;101288.19;342647;28;2015;-66
2022/01/23 00:11:25;;;;;;;34.05;20.08;;;;;;;5.56;77.57;101276.19;343320;28;1078;-65
2022/01/23 00:11:43;;;;;;;32.05;20.33;;;;;;;5.47;77.92;101281.19;343615;28;1034;-65
2022/01/23 00:11:56;;;;;;;33.13;20.13;;;;;;;5.42;78.22;101272.53;343560;28;1063;-65
2022/01/23 00:12:14;;;;;;;36.67;20.08;;;;;;;5.48;78.35;101277.78;342281;28;1199;-65
2022/01/23 00:12:28;;;;;;;34.72;20.00;;;;;;;5.55;77.80;101274.47;342466;28;1051;-65
2022/01/23 00:12:48;;;;;;;33.50;20.02;;;;;;;5.56;77.33;101278.75;342115;28;1259;-65
2022/01/23 00:13:11;;;;;;;34.75;20.25;;;;;;;5.59;77.05;101278.81;341392;28;1617;-65
2022/01/23 00:17:33;;;;;;;33.53;19.88;;;;;;;5.44;78.51;101276.00;343689;28;1261;-65
2022/01/23 00:17:48;;;;;;;33.08;20.60;;;;;;;5.48;78.42;101277.78;342842;28;1673;-65
2022/01/23 00:18:00;;;;;;;32.95;20.80;;;;;;;5.40;78.54;101279.41;342689;28;1916;-65
2022/01/23 00:18:11;;;;;;;33.22;20.48;;;;;;;5.42;78.41;101288.03;342528;28;832;-65
2022/01/23 00:18:24;;;;;;;33.17;20.38;;;;;;;5.37;78.29;101281.91;341789;28;2222;-65
2022/01/23 00:18:36;;;;;;;36.17;20.25;;;;;;;5.39;79.08;101285.38;340777;29;1199;-65
2022/01/23 00:18:48;;;;;;;37.42;20.48;;;;;;;5.36;79.29;101282.78;341066;29;1014;-65
2022/01/23 00:19:01;;;;;;;35.95;20.88;;;;;;;5.40;78.58;101285.41;341391;28;1600;-65
2022/01/23 00:19:14;;;;;;;34.95;21.42;;;;;;;5.39;78.70;101282.81;342005;28;1282;-65
2022/01/23 00:19:26;;;;;;;34.72;20.98;;;;;;;5.35;79.07;101286.19;341481;28;2023;-65
2022/01/23 00:19:38;;;;;;;34.72;19.95;;;;;;;5.24;79.34;101282.59;341239;28;2212;-65
2022/01/23 00:19:56;;;;;;;34.42;19.40;;;;;;;5.31;78.84;101281.81;341761;28;1060;-65
2022/01/23 00:20:12;;;;;;;34.10;20.58;;;;;;;5.25;79.33;101285.19;341185;28;1988;-65
2022/01/23 00:20:24;;;;;;;35.35;20.88;;;;;;;5.29;78.84;101280.94;343111;28;2095;-65
2022/01/23 00:20:36;;;;;;;36.00;19.65;;;;;;;5.33;78.94;101283.59;342098;28;1232;-65
2022/01/23 00:20:50;;;;;;;35.28;19.42;;;;;;;5.33;79.36;101288.75;341996;28;1304;-65
2022/01/23 00:21:02;;;;;;;34.17;19.92;;;;;;;5.25;79.51;101284.31;341732;28;2143;-65
2022/01/23 00:21:14;;;;;;;33.60;20.25;;;;;;;5.22;78.80;101281.69;341922;28;1032;-66
2022/01/23 00:21:26;;;;;;;33.42;20.10;;;;;;;5.22;79.27;101285.13;341985;28;1080;-65
2022/01/23 00:21:40;;;;;;;33.83;19.83;;;;;;;5.27;78.65;101280.03;342020;28;1092;-65
2022/01/23 00:21:57;;;;;;;33.35;19.67;;;;;;;5.27;79.05;101277.47;341853;28;1088;-65
2022/01/23 00:22:10;;;;;;;33.97;20.25;;;;;;;5.27;78.67;101282.63;341302;28;1960;-65
2022/01/23 00:22:33;;;;;;;34.33;20.95;;;;;;;5.28;78.86;101279.22;342012;28;1104;-65
2022/01/23 00:22:46;;;;;;;33.75;19.55;;;;;;;5.29;79.00;101280.94;343891;28;1213;-65
2022/01/23 00:23:01;;;;;;;34.65;19.85;;;;;;;5.32;78.80;101281.00;343538;28;1645;-65
2022/01/23 00:23:28;;;;;;;34.55;20.52;;;;;;;5.37;78.46;101284.50;343166;28;1665;-65
2022/01/23 00:30:30;;;;;;;35.17;21.10;;;;;;;5.12;79.42;101273.81;342270;28;1098;-65
2022/01/23 00:30:44;;;;;;;35.00;20.88;;;;;;;5.17;79.86;101274.75;342393;28;1075;-65
2022/01/23 00:30:59;;;;;;;34.33;20.75;;;;;;;5.15;79.60;101278.13;342237;28;1049;-65
2022/01/23 00:31:11;;;;;;;34.90;20.60;;;;;;;5.18;79.79;101278.19;341838;28;1916;-65
2022/01/23 00:31:25;;;;;;;33.25;19.40;;;;;;;5.22;80.10;101273.97;343254;28;1040;-65
2022/01/23 00:31:39;;;;;;;34.20;19.58;;;;;;;5.22;79.73;101279.13;343539;28;1201;-65
2022/01/23 00:31:51;;;;;;;34.65;20.15;;;;;;;5.25;79.57;101274.00;343193;28;939;-65
2022/01/23 00:32:03;;;;;;;35.97;21.27;;;;;;;5.24;78.76;101277.44;342857;28;1624;-65
2022/01/23 00:32:16;;;;;;;36.65;21.02;;;;;;;5.26;78.67;101275.75;343298;28;1091;-65
2022/01/23 00:32:28;;;;;;;35.97;20.27;;;;;;;5.19;78.85;101275.66;343280;28;1350;-65
2022/01/23 00:32:40;;;;;;;35.78;19.88;;;;;;;5.18;79.02;101273.91;343257;28;1107;-65
2022/01/23 00:32:58;;;;;;;35.67;20.42;;;;;;;5.15;79.29;101273.88;342533;28;2105;-65
2022/01/23 00:33:15;;;;;;;33.50;20.98;;;;;;;5.18;79.51;101273.03;343271;28;1277;-65
2022/01/23 00:33:27;;;;;;;34.42;19.95;;;;;;;5.13;79.40;101275.56;343435;28;1036;-65
2022/01/23 00:33:39;;;;;;;33.80;19.15;;;;;;;5.15;79.28;101268.72;343729;28;1302;-65
2022/01/23 00:33:54;;;;;;;32.50;19.05;;;;;;;5.17;79.64;101273.88;342897;28;2293;-65
2022/01/23 00:34:09;;;;;;;32.75;20.13;;;;;;;5.15;79.61;101272.97;342211;28;1226;-65
2022/01/23 00:34:21;;;;;;;34.25;20.40;;;;;;;5.07;80.06;101270.31;342069;28;1229;-65
2022/01/23 00:34:33;;;;;;;32.72;20.08;;;;;;;5.14;80.06;101271.25;342251;28;2049;-65
2022/01/23 00:34:46;;;;;;;32.92;19.83;;;;;;;5.09;79.47;101266.06;340866;29;1112;-65
2022/01/23 00:35:01;;;;;;;32.78;19.80;;;;;;;5.08;79.26;101269.44;342374;28;1375;-65
2022/01/23 00:35:13;;;;;;;33.60;19.42;;;;;;;5.07;80.19;101265.16;343633;28;1314;-65
2022/01/23 00:35:27;;;;;;;32.58;19.27;;;;;;;5.07;80.02;101265.16;343693;28;1793;-66
2022/01/23 00:35:44;;;;;;;31.58;19.35;;;;;;;5.10;80.09;101274.63;343557;28;1223;-65
2022/01/23 00:35:56;;;;;;;31.38;19.40;;;;;;;5.12;79.73;101266.06;342525;28;1821;-65
2022/01/23 00:36:08;;;;;;;31.63;19.23;;;;;;;5.14;80.29;101266.09;342732;28;1924;-65
2022/01/23 00:36:24;;;;;;;34.53;19.42;;;;;;;5.12;79.50;101268.66;342463;28;1091;-65
2022/01/23 00:36:36;;;;;;;36.00;20.63;;;;;;;5.14;79.59;101269.56;341977;28;1060;-65
2022/01/23 00:36:48;;;;;;;35.55;21.13;;;;;;;5.05;80.08;101261.69;340966;29;1178;-65
2022/01/23 00:37:00;;;;;;;34.25;20.17;;;;;;;5.10;80.19;101265.19;341507;28;1763;-65
2022/01/23 00:37:12;;;;;;;31.73;19.23;;;;;;;5.05;80.07;101268.53;342128;28;1070;-65
2022/01/23 00:37:25;;;;;;;31.20;18.83;;;;;;;5.12;80.17;101278.97;341876;28;1526;-65
2022/01/23 00:37:37;;;;;;;33.56;19.86;;;;;;;5.07;79.96;101272.88;340716;29;1330;-65
2022/01/23 00:37:50;;;;;;;34.78;21.27;;;;;;;5.04;79.87;101265.09;340838;29;1116;-65
2022/01/23 00:38:07;;;;;;;33.13;20.95;;;;;;;5.06;80.34;101265.97;341155;28;1901;-65
2022/01/23 00:38:20;;;;;;;33.00;19.00;;;;;;;5.04;80.23;101280.56;341994;28;1046;-65
2022/01/23 00:38:32;;;;;;;33.70;19.13;;;;;;;5.10;79.97;101272.06;341266;28;2136;-65
2022/01/23 00:38:44;;;;;;;34.28;19.92;;;;;;;5.12;80.14;101273.81;341907;28;2041;-65
2022/01/23 00:38:57;;;;;;;37.53;21.52;;;;;;;5.20;80.04;101277.38;342238;28;1623;-65
2022/01/23 00:39:09;;;;;;;35.10;20.35;;;;;;;5.18;79.74;101273.91;343148;28;1247;-65
2022/01/23 00:39:21;;;;;;;33.53;19.38;;;;;;;5.17;79.55;101274.75;343279;28;1161;-65
2022/01/23 00:39:33;;;;;;;33.88;19.50;;;;;;;5.18;79.52;101276.47;342261;28;1827;-65
2022/01/23 00:39:45;;;;;;;35.50;20.20;;;;;;;5.25;79.42;101279.16;342637;28;2058;-65
2022/01/23 00:39:57;;;;;;;35.60;20.40;;;;;;;5.26;79.62;101270.59;343443;28;1698;-65
2022/01/23 00:40:10;;;;;;;36.10;19.90;;;;;;;5.26;79.57;101273.16;343493;28;2031;-65
2022/01/23 00:40:24;;;;;;;36.20;19.48;;;;;;;5.32;79.48;101273.25;343427;28;1245;-65
2022/01/23 00:40:38;;;;;;;32.17;19.65;;;;;;;5.36;79.39;101272.47;342787;28;2095;-65
2022/01/23 00:40:50;;;;;;;33.72;20.13;;;;;;;5.38;79.05;101275.94;343370;28;1138;-65
2022/01/23 00:41:02;;;;;;;34.63;20.10;;;;;;;5.38;77.60;101275.94;342606;28;2055;-65
2022/01/23 00:41:14;;;;;;;35.40;19.60;;;;;;;5.36;78.43;101275.03;343268;28;2089;-65
2022/01/23 00:41:27;;;;;;;34.33;19.20;;;;;;;5.37;78.73;101281.91;343558;28;1039;-65
2022/01/23 00:41:39;;;;;;;35.03;20.38;;;;;;;5.30;78.18;101277.53;343530;28;1078;-65
2022/01/23 00:41:51;;;;;;;34.45;20.98;;;;;;;5.34;78.47;101276.72;343473;28;1277;-65
2022/01/23 00:42:04;;;;;;;33.85;20.52;;;;;;;5.34;78.49;101274.16;343584;28;1628;-65
2022/01/23 00:42:16;;;;;;;34.10;19.48;;;;;;;5.36;79.06;101272.47;342892;28;2075;-65
2022/01/23 00:42:28;;;;;;;34.88;19.42;;;;;;;5.37;78.32;101275.06;343474;28;1062;-65
2022/01/23 00:42:40;;;;;;;33.85;20.15;;;;;;;5.40;78.65;101275.09;342671;28;1866;-65
2022/01/23 00:42:58;;;;;;;35.20;21.20;;;;;;;5.37;78.02;101274.19;343134;28;1059;-65
2022/01/23 00:43:17;;;;;;;34.97;20.52;;;;;;;5.32;78.52;101281.00;342135;28;1232;-65
2022/01/23 00:43:31;;;;;;;34.65;19.33;;;;;;;5.36;78.80;101278.47;342016;28;984;-65
2022/01/23 00:43:45;;;;;;;33.97;19.95;;;;;;;5.38;78.64;101283.66;342070;28;1207;-65
2022/01/23 00:43:57;;;;;;;31.80;19.92;;;;;;;5.37;78.79;101279.34;342128;28;1421;-65
2022/01/23 00:44:09;;;;;;;31.80;19.55;;;;;;;5.38;78.41;101275.94;342729;28;1810;-65
2022/01/23 00:44:21;;;;;;;33.92;20.50;;;;;;;5.42;78.12;101279.44;342196;28;1942;-65
2022/01/23 00:44:36;;;;;;;34.13;21.00;;;;;;;5.42;78.24;101277.72;341972;28;1082;-65
2022/01/23 00:44:54;;;;;;;33.03;20.88;;;;;;;5.44;79.03;101276.00;341727;28;1348;-65
2022/01/23 00:45:53;;;;;;;37.20;20.73;;;;;;;5.34;78.58;101279.31;337265;29;2469;-65
2022/01/23 00:46:22;;;;;;;34.15;19.23;;;;;;;5.27;78.32;101277.47;338029;29;1048;-65
2022/01/23 00:46:37;;;;;;;35.03;19.92;;;;;;;5.29;79.02;101276.66;343286;28;843;-65
2022/01/23 00:46:51;;;;;;;36.10;20.98;;;;;;;5.33;78.57;101282.72;342404;28;2110;-65
2022/01/23 00:47:10;;;;;;;38.60;21.52;;;;;;;5.37;78.97;101276.75;343489;28;1614;-65
2022/01/23 00:47:22;;;;;;;35.42;20.65;;;;;;;5.35;78.73;101276.75;343548;28;1987;-65
2022/01/23 00:47:34;;;;;;;33.63;20.52;;;;;;;5.31;78.50;101281.81;342151;28;1108;-65
2022/01/23 00:47:47;;;;;;;34.08;20.55;;;;;;;5.29;79.37;101283.50;342034;28;1012;-65
2022/01/23 00:48:04;;;;;;;33.47;19.90;;;;;;;5.32;79.03;101286.16;341190;28;2160;-65
2022/01/23 00:48:18;;;;;;;32.00;19.40;;;;;;;5.36;78.45;101278.47;342007;28;1266;-65
2022/01/23 00:48:35;;;;;;;33.33;20.00;;;;;;;5.38;79.25;101275.94;342019;28;1313;-65
2022/01/23 00:49:25;;;;;;;34.90;19.98;;;;;;;5.38;78.26;101287.09;340678;28;1055;-65
2022/01/23 00:49:37;;;;;;;35.60;19.85;;;;;;;5.40;78.95;101280.25;340615;28;1816;-65
2022/01/23 00:49:49;;;;;;;35.92;20.50;;;;;;;5.39;78.35;101278.53;340940;29;1064;-65
2022/01/23 00:50:01;;;;;;;34.78;20.50;;;;;;;5.41;78.78;101281.13;341497;28;1650;-65
2022/01/23 00:50:13;;;;;;;34.22;20.10;;;;;;;5.41;79.12;101291.44;341858;28;1896;-65
2022/01/23 00:50:26;;;;;;;34.30;20.42;;;;;;;5.39;79.05;101275.97;342066;28;1094;-65
2022/01/23 00:50:42;;;;;;;34.05;21.25;;;;;;;5.41;78.90;101281.13;341874;28;1495;-65
2022/01/23 00:50:54;;;;;;;33.97;21.05;;;;;;;5.42;78.67;101282.88;340843;28;2160;-65
2022/01/23 00:51:06;;;;;;;34.78;21.02;;;;;;;5.45;78.81;101282.91;342025;28;1324;-65
2022/01/23 00:51:33;;;;;;;36.75;20.60;;;;;;;5.48;78.55;101285.53;341599;28;1728;-65
2022/01/23 00:51:45;;;;;;;36.55;20.77;;;;;;;5.46;78.12;101284.66;342051;28;1072;-65
2022/01/23 00:51:57;;;;;;;34.47;20.92;;;;;;;5.42;77.93;101282.88;341982;28;1608;-65
2022/01/23 00:52:09;;;;;;;33.20;20.55;;;;;;;5.34;78.06;101284.47;342150;28;1060;-65
2022/01/23 00:52:21;;;;;;;30.95;19.30;;;;;;;5.26;79.07;101280.91;342647;28;2199;-65
2022/01/23 00:52:33;;;;;;;32.05;19.02;;;;;;;5.29;78.59;101286.09;343287;28;1196;-65
2022/01/23 00:52:45;;;;;;;35.10;20.42;;;;;;;5.34;79.28;101281.88;343682;28;1245;-65
2022/01/23 00:52:57;;;;;;;34.42;20.73;;;;;;;5.35;79.09;101281.03;343393;28;1426;-65
2022/01/23 00:53:12;;;;;;;34.17;20.77;;;;;;;5.17;79.18;101277.34;343288;28;1284;-65
2022/01/23 00:53:23;;;;;;;32.33;20.08;;;;;;;5.18;79.61;101278.19;343630;28;1058;-65
2022/01/23 00:53:36;;;;;;;31.90;19.60;;;;;;;5.19;79.26;101275.66;343393;28;1146;-65
2022/01/23 00:53:47;;;;;;;34.80;20.33;;;;;;;5.19;79.48;101273.09;342883;28;1848;-65
2022/01/23 00:54:03;;;;;;;36.88;21.23;;;;;;;5.26;78.83;101278.31;343322;28;1749;-65
2022/01/23 00:54:15;;;;;;;35.85;20.25;;;;;;;5.24;79.78;101282.59;343198;28;910;-65
2022/01/23 00:54:27;;;;;;;35.33;19.52;;;;;;;5.20;79.63;101282.53;342353;28;1994;-65
2022/01/23 00:54:39;;;;;;;36.75;20.35;;;;;;;5.24;79.51;101282.59;341833;28;1084;-65
2022/01/23 00:54:51;;;;;;;36.35;20.73;;;;;;;5.26;79.18;101275.75;342003;28;1023;-65
2022/01/23 00:55:04;;;;;;;35.53;20.58;;;;;;;5.27;79.19;101277.47;342055;28;1773;-65
2022/01/23 00:55:16;;;;;;;36.45;20.73;;;;;;;5.29;79.37;101275.78;343747;28;1336;-65
2022/01/23 00:55:28;;;;;;;35.55;20.80;;;;;;;5.33;79.21;101277.56;342664;28;2081;-65
2022/01/23 00:55:43;;;;;;;34.63;20.83;;;;;;;5.38;78.32;101276.78;343559;28;1232;-65
2022/01/23 00:55:55;;;;;;;34.47;20.40;;;;;;;5.39;78.67;101277.66;343317;28;1071;-65
2022/01/23 00:56:07;;;;;;;34.55;20.33;;;;;;;5.40;78.04;101275.09;343108;28;1036;-65
2022/01/23 00:56:25;;;;;;;35.03;20.33;;;;;;;5.42;78.64;101276.84;343113;28;1062;-65
2022/01/23 00:56:38;;;;;;;35.78;21.42;;;;;;;5.38;78.44;101275.94;343464;28;1012;-65
2022/01/23 00:56:50;;;;;;;37.13;22.00;;;;;;;5.39;78.60;101273.38;343438;28;1072;-65
2022/01/23 00:57:02;;;;;;;36.13;21.00;;;;;;;5.36;78.71;101278.47;342813;28;1954;-65
2022/01/23 00:57:14;;;;;;;35.17;20.35;;;;;;;5.36;78.90;101272.47;343426;28;1129;-65
2022/01/23 00:57:26;;;;;;;33.63;20.05;;;;;;;5.39;78.86;101275.97;343073;28;2219;-65
2022/01/23 00:57:39;;;;;;;33.50;20.60;;;;;;;5.44;79.11;101275.16;343383;28;2312;-65
2022/01/23 00:57:51;;;;;;;34.00;21.20;;;;;;;5.45;78.87;101274.28;343464;28;1115;-65
2022/01/23 00:58:03;;;;;;;35.00;20.73;;;;;;;5.43;78.35;101279.44;343047;28;2030;-65
2022/01/23 00:58:16;;;;;;;35.00;20.30;;;;;;;5.45;78.85;101272.56;342000;28;1060;-65
2022/01/23 00:58:28;;;;;;;35.28;20.70;;;;;;;5.50;78.45;101275.25;341773;28;1059;-65
2022/01/23 00:58:40;;;;;;;35.42;21.27;;;;;;;5.39;78.18;101268.22;344244;28;1741;-65
2022/01/23 00:58:53;;;;;;;33.90;20.55;;;;;;;5.37;78.71;101274.19;344780;28;1326;-65
2022/01/23 00:59:05;;;;;;;33.47;19.88;;;;;;;5.42;78.32;101271.69;342837;28;1679;-65
2022/01/23 00:59:17;;;;;;;34.08;20.55;;;;;;;5.43;79.00;101278.56;343297;28;1125;-65
2022/01/23 00:59:29;;;;;;;34.78;20.63;;;;;;;5.46;78.82;101269.16;343586;28;1346;-65
2022/01/23 00:59:42;;;;;;;35.13;20.70;;;;;;;5.46;78.97;101264.00;342566;28;1783;-65
2022/01/23 00:59:54;;;;;;;34.17;20.38;;;;;;;5.43;78.34;101269.09;343320;28;1867;-65
2022/01/23 01:00:07;;;;;;;34.53;20.40;;;;;;;5.45;78.55;101270.00;343416;28;1090;-65
2022/01/23 01:00:20;;;;;;;35.47;20.95;;;;;;;5.41;77.91;101275.97;343506;28;1857;-65
2022/01/23 01:00:32;;;;;;;37.15;21.38;;;;;;;5.44;78.44;101276.00;343227;28;1059;-65
2022/01/23 01:00:45;;;;;;;36.22;21.33;;;;;;;5.50;78.35;101275.25;343396;28;1106;-65
2022/01/23 01:00:57;;;;;;;35.40;20.85;;;;;;;5.50;78.61;101275.25;342512;28;2148;-65
2022/01/23 01:01:09;;;;;;;33.70;20.42;;;;;;;5.50;78.27;101273.53;343238;28;1836;-65
2022/01/23 01:01:22;;;;;;;33.78;20.35;;;;;;;5.52;78.19;101274.41;343308;28;1030;-65
2022/01/23 01:01:37;;;;;;;36.80;20.92;;;;;;;5.55;78.09;101273.59;342772;28;2023;-65
2022/01/23 01:01:49;;;;;;;36.47;20.38;;;;;;;5.55;78.63;101266.72;342307;28;1052;-65
2022/01/23 01:02:01;;;;;;;35.80;20.20;;;;;;;5.55;79.13;101273.59;342895;28;1582;-65
2022/01/23 01:02:14;;;;;;;35.47;20.90;;;;;;;5.56;79.16;101271.03;343427;28;1039;-65
2022/01/23 01:02:26;;;;;;;34.25;21.60;;;;;;;5.57;78.89;101272.78;343522;28;1346;-65
2022/01/23 01:02:39;;;;;;;33.95;21.40;;;;;;;5.53;78.96;101268.44;343542;28;1048;-65
2022/01/23 01:02:52;;;;;;;33.92;20.33;;;;;;;5.51;78.89;101270.09;343171;28;1819;-65
2022/01/23 01:03:04;;;;;;;35.95;20.67;;;;;;;5.53;78.98;101268.44;343312;28;1357;-65
2022/01/23 01:03:16;;;;;;;37.53;21.50;;;;;;;5.57;78.33;101261.56;343446;28;1110;-65
2022/01/23 01:03:29;;;;;;;36.55;22.05;;;;;;;5.58;78.49;101271.06;343653;28;1724;-65
2022/01/23 01:03:41;;;;;;;35.22;21.55;;;;;;;5.59;78.55;101271.09;342829;28;2193;-65
2022/01/23 01:03:53;;;;;;;34.13;21.38;;;;;;;5.55;78.23;101273.59;342187;28;1072;-65
2022/01/23 01:04:06;;;;;;;33.47;20.90;;;;;;;5.51;78.15;101272.66;342406;28;1835;-65
2022/01/23 01:04:18;;;;;;;35.97;22.23;;;;;;;5.42;77.96;101264.81;343504;28;1087;-65
2022/01/23 01:04:30;;;;;;;35.92;22.20;;;;;;;5.43;78.49;101268.25;343336;28;1175;-65
2022/01/23 01:04:42;;;;;;;36.28;20.73;;;;;;;5.45;78.53;101270.00;343353;28;1319;-65
2022/01/23 01:04:54;;;;;;;36.03;19.80;;;;;;;5.46;78.21;101273.47;343740;28;1403;-65
2022/01/23 01:05:07;;;;;;;36.67;19.92;;;;;;;5.43;78.38;101268.25;343529;28;1067;-65
2022/01/23 01:05:19;;;;;;;34.95;20.55;;;;;;;5.46;78.15;101271.75;342929;28;2411;-65
2022/01/23 01:05:32;;;;;;;35.03;21.63;;;;;;;5.49;77.82;101274.34;342364;28;2708;-65
2022/01/23 01:05:44;;;;;;;36.40;21.52;;;;;;;5.48;78.04;101267.47;343053;28;1742;-65
2022/01/23 01:05:56;;;;;;;35.20;20.75;;;;;;;5.44;77.84;101270.84;343161;28;2113;-65
2022/01/23 01:06:08;;;;;;;34.97;20.58;;;;;;;5.39;78.33;101268.22;343464;28;1103;-65
2022/01/23 01:06:20;;;;;;;35.90;21.48;;;;;;;5.40;77.26;101274.25;343331;28;1829;-65
2022/01/23 01:06:32;;;;;;;38.65;22.08;;;;;;;5.43;77.49;101269.09;343486;28;1071;-65
2022/01/23 01:06:44;;;;;;;39.03;21.88;;;;;;;5.45;77.20;101272.56;343696;28;1090;-65
2022/01/23 01:06:56;;;;;;;38.92;21.58;;;;;;;5.44;76.85;101270.00;343341;28;1922;-65
2022/01/23 01:07:09;;;;;;;37.22;20.83;;;;;;;5.46;77.59;101269.16;343691;28;1319;-65
2022/01/23 01:07:21;;;;;;;36.75;20.88;;;;;;;5.41;77.53;101270.81;343196;28;1278;-65
2022/01/23 01:07:33;;;;;;;35.25;21.35;;;;;;;5.44;78.33;101265.69;343515;28;1317;-65
2022/01/23 01:07:45;;;;;;;34.20;21.35;;;;;;;5.46;78.07;101269.16;342420;28;1821;-65
2022/01/23 01:07:59;;;;;;;32.97;21.20;;;;;;;5.46;77.61;101274.31;342252;28;1370;-65
2022/01/23 01:08:11;;;;;;;35.25;20.67;;;;;;;5.42;78.68;101271.69;342560;28;1916;-65
2022/01/23 01:08:23;;;;;;;35.83;20.73;;;;;;;5.42;78.63;101266.53;342816;28;1711;-65
2022/01/23 01:08:35;;;;;;;37.10;21.52;;;;;;;5.42;78.45;101264.81;343469;28;1031;-65
2022/01/23 01:08:50;;;;;;;36.67;20.80;;;;;;;5.40;78.47;101263.94;342150;28;1049;-65
2022/01/23 01:09:06;;;;;;;35.38;20.48;;;;;;;5.41;78.76;101268.22;341873;28;1703;-65
2022/01/23 01:09:18;;;;;;;33.75;20.33;;;;;;;5.41;78.63;101265.66;342004;28;1242;-65
2022/01/23 01:09:31;;;;;;;33.70;20.33;;;;;;;5.43;78.36;101263.09;341929;28;1059;-65
2022/01/23 01:09:48;;;;;;;33.67;20.70;;;;;;;5.35;79.01;101265.56;342290;28;1214;-66
2022/01/23 01:10:07;;;;;;;34.28;21.60;;;;;;;5.33;79.33;101267.25;341422;28;1676;-66
2022/01/23 01:10:25;;;;;;;35.13;21.08;;;;;;;5.35;79.02;101260.41;340173;29;1426;-65
2022/01/23 01:10:55;;;;;;;33.22;20.17;;;;;;;5.41;79.01;101260.47;340887;29;1100;-65
2022/01/23 01:12:08;;;;;;;33.90;19.92;;;;;;;5.35;78.53;101257.81;341401;28;2221;-65
2022/01/23 01:12:25;;;;;;;36.00;21.38;;;;;;;5.43;78.58;101253.63;341885;28;853;-65
2022/01/23 01:12:43;;;;;;;35.33;20.45;;;;;;;5.47;78.52;101265.72;342459;28;1027;-65
2022/01/23 01:12:59;;;;;;;34.50;21.05;;;;;;;5.52;78.22;101263.22;342491;28;1318;-65
2022/01/23 01:13:13;;;;;;;36.60;21.60;;;;;;;5.55;77.57;101259.00;342060;28;1355;-65
2022/01/23 01:13:31;;;;;;;35.63;20.02;;;;;;;5.57;77.62;101267.63;341942;28;1292;-65
2022/01/23 01:15:23;;;;;;;41.50;22.25;;;;;;;5.65;78.04;101259.09;339118;29;1383;-65
2022/01/23 01:16:01;;;;;;;35.63;21.13;;;;;;;5.69;78.13;101255.72;338712;29;2050;-65
2022/01/23 01:16:56;;;;;;;37.35;21.25;;;;;;;5.65;78.59;101259.09;342595;28;1073;-65
2022/01/23 01:30:28;;;;;;;36.10;20.35;;;;;;;5.55;78.30;101268.41;342909;28;1910;-65
2022/01/23 01:30:55;;;;;;;32.58;20.05;;;;;;;5.52;77.88;101271.84;343550;28;1321;-65
2022/01/23 01:31:21;;;;;;;35.53;19.75;;;;;;;5.53;77.94;101270.13;342187;28;1056;-65
2022/01/23 01:31:41;;;;;;;34.13;20.65;;;;;;;5.56;77.53;101270.16;342511;28;2028;-65
2022/01/23 01:32:00;;;;;;;35.35;20.60;;;;;;;5.57;77.68;101275.34;343505;28;1019;-65
2022/01/23 01:32:16;;;;;;;35.08;21.08;;;;;;;5.64;77.69;101263.41;342211;28;1076;-65
2022/01/23 01:34:15;;;;;;;33.42;21.60;;;;;;;5.69;77.31;101266.03;342858;28;1497;-65
2022/01/23 01:34:39;;;;;;;34.25;20.88;;;;;;;5.59;77.07;101270.19;341823;28;1815;-65
2022/01/23 01:35:13;;;;;;;33.65;19.17;;;;;;;5.56;77.91;101271.03;343900;28;1135;-65
2022/01/23 01:35:46;;;;;;;32.83;19.48;;;;;;;5.57;77.50;101271.88;342221;28;1269;-66
2022/01/23 01:36:03;;;;;;;33.65;19.25;;;;;;;5.60;77.57;101265.06;343801;28;1292;-65
2022/01/23 01:36:44;;;;;;;35.78;20.85;;;;;;;5.69;76.73;101266.88;342932;28;2414;-65
2022/01/23 01:36:56;;;;;;;32.65;20.33;;;;;;;5.71;77.33;101274.66;343663;28;1799;-65
2022/01/23 01:37:10;;;;;;;32.35;19.38;;;;;;;5.73;76.92;101273.81;343954;28;1287;-65
2022/01/23 01:37:26;;;;;;;33.72;19.27;;;;;;;5.66;76.98;101282.34;343117;28;1763;-66
2022/01/23 01:37:38;;;;;;;32.35;19.15;;;;;;;5.68;77.27;101269.47;341485;28;2166;-65